sensor_id;sensor_type;location;lat;lon;timestamp;P1;durP1;ratioP1;P2;durP2;ratioP2
78668;SDS011;67984;45.118;20.724;2023-09-30T00:04:04;11.82;;;5.75;;
78668;SDS011;67984;45.118;20.724;2023-09-30T00:14:07;10.50;;;5.35;;
78668;SDS011;67984;45.118;20.724;2023-09-30T00:24:07;10.90;;;5.35;;
78668;SDS011;67984;45.118;20.724;2023-09-30T00:34:08;15.75;;;6.30;;
78668;SDS011;67984;45.118;20.724;2023-09-30T00:44:08;15.35;;;7.18;;
78668;SDS011;67984;45.118;20.724;2023-09-30T00:54:09;9.77;;;6.77;;
78668;SDS011;67984;45.118;20.724;2023-09-30T01:04:13;15.20;;;7.20;;
78668;SDS011;67984;45.118;20.724;2023-09-30T01:14:48;19.63;;;8.23;;
78668;SDS011;67984;45.118;20.724;2023-09-30T01:24:42;13.75;;;7.68;;
78668;SDS011;67984;45.118;20.724;2023-09-30T01:34:43;20.58;;;9.50;;
78668;SDS011;67984;45.118;20.724;2023-09-30T01:44:44;19.15;;;10.43;;
78668;SDS011;67984;45.118;20.724;2023-09-30T01:54:45;26.52;;;11.50;;
78668;SDS011;67984;45.118;20.724;2023-09-30T02:04:45;15.77;;;9.70;;
78668;SDS011;67984;45.118;20.724;2023-09-30T02:14:46;22.38;;;10.70;;
78668;SDS011;67984;45.118;20.724;2023-09-30T02:24:46;23.77;;;12.00;;
78668;SDS011;67984;45.118;20.724;2023-09-30T02:34:48;22.33;;;12.18;;
78668;SDS011;67984;45.118;20.724;2023-09-30T02:44:50;24.98;;;11.68;;
78668;SDS011;67984;45.118;20.724;2023-09-30T02:54:51;12.80;;;8.95;;
78668;SDS011;67984;45.118;20.724;2023-09-30T03:04:52;22.55;;;10.40;;
78668;SDS011;67984;45.118;20.724;2023-09-30T03:14:52;25.02;;;11.80;;
78668;SDS011;67984;45.118;20.724;2023-09-30T03:24:54;21.33;;;11.45;;
78668;SDS011;67984;45.118;20.724;2023-09-30T03:34:54;20.80;;;11.50;;
78668;SDS011;67984;45.118;20.724;2023-09-30T03:44:59;18.10;;;10.25;;
78668;SDS011;67984;45.118;20.724;2023-09-30T03:55:00;21.48;;;11.68;;
78668;SDS011;67984;45.118;20.724;2023-09-30T04:05:04;20.73;;;11.55;;
78668;SDS011;67984;45.118;20.724;2023-09-30T04:15:05;24.85;;;12.23;;
78668;SDS011;67984;45.118;20.724;2023-09-30T04:25:07;26.65;;;13.32;;
78668;SDS011;67984;45.118;20.724;2023-09-30T04:35:11;23.42;;;12.35;;
78668;SDS011;67984;45.118;20.724;2023-09-30T04:45:12;16.48;;;10.98;;
78668;SDS011;67984;45.118;20.724;2023-09-30T04:55:13;22.25;;;11.23;;
78668;SDS011;67984;45.118;20.724;2023-09-30T05:05:16;24.75;;;10.52;;
78668;SDS011;67984;45.118;20.724;2023-09-30T05:15:16;17.38;;;11.75;;
78668;SDS011;67984;45.118;20.724;2023-09-30T05:25:17;21.83;;;11.07;;
78668;SDS011;67984;45.118;20.724;2023-09-30T05:35:18;27.03;;;14.33;;
78668;SDS011;67984;45.118;20.724;2023-09-30T05:45:18;17.05;;;12.48;;
78668;SDS011;67984;45.118;20.724;2023-09-30T05:55:19;25.77;;;13.90;;
78668;SDS011;67984;45.118;20.724;2023-09-30T06:05:22;25.75;;;14.10;;
78668;SDS011;67984;45.118;20.724;2023-09-30T06:15:23;29.33;;;16.35;;
78668;SDS011;67984;45.118;20.724;2023-09-30T06:25:26;36.60;;;17.38;;
78668;SDS011;67984;45.118;20.724;2023-09-30T06:35:28;35.42;;;16.17;;
78668;SDS011;67984;45.118;20.724;2023-09-30T06:45:30;32.80;;;16.33;;
78668;SDS011;67984;45.118;20.724;2023-09-30T06:55:34;31.17;;;15.48;;
78668;SDS011;67984;45.118;20.724;2023-09-30T07:05:37;26.15;;;13.75;;
78668;SDS011;67984;45.118;20.724;2023-09-30T07:15:40;26.00;;;13.00;;
78668;SDS011;67984;45.118;20.724;2023-09-30T07:25:40;24.70;;;10.68;;
78668;SDS011;67984;45.118;20.724;2023-09-30T07:35:41;20.60;;;10.30;;
78668;SDS011;67984;45.118;20.724;2023-09-30T07:45:42;19.67;;;9.98;;
78668;SDS011;67984;45.118;20.724;2023-09-30T07:55:43;14.93;;;9.63;;
78668;SDS011;67984;45.118;20.724;2023-09-30T08:05:44;14.32;;;8.35;;
78668;SDS011;67984;45.118;20.724;2023-09-30T08:15:46;14.15;;;7.22;;
78668;SDS011;67984;45.118;20.724;2023-09-30T08:25:47;17.23;;;7.55;;
78668;SDS011;67984;45.118;20.724;2023-09-30T08:35:48;9.57;;;5.93;;
78668;SDS011;67984;45.118;20.724;2023-09-30T08:45:48;21.00;;;7.47;;
78668;SDS011;67984;45.118;20.724;2023-09-30T08:55:52;18.98;;;5.22;;
78668;SDS011;67984;45.118;20.724;2023-09-30T09:05:56;14.70;;;5.43;;
78668;SDS011;67984;45.118;20.724;2023-09-30T09:16:06;8.95;;;4.30;;
78668;SDS011;67984;45.118;20.724;2023-09-30T09:26:23;8.90;;;5.05;;
78668;SDS011;67984;45.118;20.724;2023-09-30T09:36:40;8.77;;;3.55;;
78668;SDS011;67984;45.118;20.724;2023-09-30T09:46:41;6.75;;;3.20;;
78668;SDS011;67984;45.118;20.724;2023-09-30T09:56:45;12.52;;;3.55;;
78668;SDS011;67984;45.118;20.724;2023-09-30T10:06:46;6.07;;;3.42;;
78668;SDS011;67984;45.118;20.724;2023-09-30T10:16:51;14.00;;;4.88;;
78668;SDS011;67984;45.118;20.724;2023-09-30T10:37:20;5.68;;;3.80;;
78668;SDS011;67984;45.118;20.724;2023-09-30T10:57:27;6.00;;;3.73;;
78668;SDS011;67984;45.118;20.724;2023-09-30T11:07:28;6.88;;;3.30;;
78668;SDS011;67984;45.118;20.724;2023-09-30T11:17:29;11.88;;;3.63;;
78668;SDS011;67984;45.118;20.724;2023-09-30T11:27:30;9.97;;;3.00;;
78668;SDS011;67984;45.118;20.724;2023-09-30T11:37:34;8.25;;;3.00;;
78668;SDS011;67984;45.118;20.724;2023-09-30T11:47:35;5.00;;;3.25;;
78668;SDS011;67984;45.118;20.724;2023-09-30T11:57:37;3.85;;;3.17;;
78668;SDS011;67984;45.118;20.724;2023-09-30T12:07:38;6.38;;;3.30;;
78668;SDS011;67984;45.118;20.724;2023-09-30T12:17:42;10.27;;;3.63;;
78668;SDS011;67984;45.118;20.724;2023-09-30T12:27:42;8.23;;;3.55;;
78668;SDS011;67984;45.118;20.724;2023-09-30T12:37:43;3.75;;;3.10;;
78668;SDS011;67984;45.118;20.724;2023-09-30T12:47:46;11.75;;;2.72;;
78668;SDS011;67984;45.118;20.724;2023-09-30T12:57:48;8.20;;;3.40;;
78668;SDS011;67984;45.118;20.724;2023-09-30T13:07:48;9.77;;;3.42;;
78668;SDS011;67984;45.118;20.724;2023-09-30T13:17:49;6.43;;;2.57;;
78668;SDS011;67984;45.118;20.724;2023-09-30T13:27:50;7.47;;;2.87;;
78668;SDS011;67984;45.118;20.724;2023-09-30T13:37:50;5.38;;;3.55;;
78668;SDS011;67984;45.118;20.724;2023-09-30T13:47:51;4.10;;;2.13;;
78668;SDS011;67984;45.118;20.724;2023-09-30T13:57:52;6.57;;;3.23;;
78668;SDS011;67984;45.118;20.724;2023-09-30T14:07:52;11.43;;;3.17;;
78668;SDS011;67984;45.118;20.724;2023-09-30T14:17:53;9.67;;;3.03;;
78668;SDS011;67984;45.118;20.724;2023-09-30T14:27:55;6.88;;;3.33;;
78668;SDS011;67984;45.118;20.724;2023-09-30T14:38:00;10.27;;;2.88;;
78668;SDS011;67984;45.118;20.724;2023-09-30T14:48:01;6.55;;;2.65;;
78668;SDS011;67984;45.118;20.724;2023-09-30T14:58:01;12.40;;;2.80;;
78668;SDS011;67984;45.118;20.724;2023-09-30T15:08:02;11.65;;;2.80;;
78668;SDS011;67984;45.118;20.724;2023-09-30T15:18:03;7.50;;;2.50;;
78668;SDS011;67984;45.118;20.724;2023-09-30T15:28:03;5.40;;;2.17;;
78668;SDS011;67984;45.118;20.724;2023-09-30T15:38:04;10.60;;;3.40;;
78668;SDS011;67984;45.118;20.724;2023-09-30T15:48:05;7.00;;;2.97;;
78668;SDS011;67984;45.118;20.724;2023-09-30T15:58:05;16.33;;;4.37;;
78668;SDS011;67984;45.118;20.724;2023-09-30T16:08:07;18.52;;;6.30;;
78668;SDS011;67984;45.118;20.724;2023-09-30T16:18:08;31.35;;;8.60;;
78668;SDS011;67984;45.118;20.724;2023-09-30T16:28:09;16.30;;;5.15;;
78668;SDS011;67984;45.118;20.724;2023-09-30T16:38:09;27.00;;;6.28;;
78668;SDS011;67984;45.118;20.724;2023-09-30T16:48:10;31.38;;;4.18;;
78668;SDS011;67984;45.118;20.724;2023-09-30T16:58:10;24.85;;;3.03;;
78668;SDS011;67984;45.118;20.724;2023-09-30T17:08:11;22.98;;;4.18;;
78668;SDS011;67984;45.118;20.724;2023-09-30T17:18:12;20.75;;;2.70;;
78668;SDS011;67984;45.118;20.724;2023-09-30T17:28:13;10.52;;;3.17;;
78668;SDS011;67984;45.118;20.724;2023-09-30T17:38:13;19.50;;;3.10;;
78668;SDS011;67984;45.118;20.724;2023-09-30T17:48:14;16.92;;;2.80;;
78668;SDS011;67984;45.118;20.724;2023-09-30T17:58:16;13.85;;;3.83;;
78668;SDS011;67984;45.118;20.724;2023-09-30T18:08:17;12.00;;;3.75;;
78668;SDS011;67984;45.118;20.724;2023-09-30T18:18:17;15.15;;;4.40;;
78668;SDS011;67984;45.118;20.724;2023-09-30T18:28:18;10.35;;;4.97;;
78668;SDS011;67984;45.118;20.724;2023-09-30T18:38:19;11.30;;;5.78;;
78668;SDS011;67984;45.118;20.724;2023-09-30T18:48:20;13.45;;;5.90;;
78668;SDS011;67984;45.118;20.724;2023-09-30T18:58:21;14.97;;;5.63;;
78668;SDS011;67984;45.118;20.724;2023-09-30T19:08:21;13.27;;;5.47;;
78668;SDS011;67984;45.118;20.724;2023-09-30T19:18:25;10.55;;;5.93;;
78668;SDS011;67984;45.118;20.724;2023-09-30T19:28:26;13.27;;;5.93;;
78668;SDS011;67984;45.118;20.724;2023-09-30T19:38:26;10.77;;;5.23;;
78668;SDS011;67984;45.118;20.724;2023-09-30T19:48:27;10.07;;;4.82;;
78668;SDS011;67984;45.118;20.724;2023-09-30T19:58:27;8.20;;;4.30;;
78668;SDS011;67984;45.118;20.724;2023-09-30T20:08:28;12.10;;;4.82;;
78668;SDS011;67984;45.118;20.724;2023-09-30T20:18:30;11.05;;;4.95;;
78668;SDS011;67984;45.118;20.724;2023-09-30T20:28:32;11.43;;;5.60;;
78668;SDS011;67984;45.118;20.724;2023-09-30T20:38:32;9.77;;;5.28;;
78668;SDS011;67984;45.118;20.724;2023-09-30T20:48:36;14.90;;;6.45;;
78668;SDS011;67984;45.118;20.724;2023-09-30T20:58:36;23.83;;;7.07;;
78668;SDS011;67984;45.118;20.724;2023-09-30T21:08:37;18.77;;;6.05;;
78668;SDS011;67984;45.118;20.724;2023-09-30T21:18:38;18.10;;;7.13;;
78668;SDS011;67984;45.118;20.724;2023-09-30T21:28:42;12.57;;;6.28;;
78668;SDS011;67984;45.118;20.724;2023-09-30T21:38:47;16.50;;;6.82;;
78668;SDS011;67984;45.118;20.724;2023-09-30T21:48:48;18.00;;;6.90;;
78668;SDS011;67984;45.118;20.724;2023-09-30T21:58:49;18.23;;;6.65;;
78668;SDS011;67984;45.118;20.724;2023-09-30T22:08:51;16.30;;;7.53;;
78668;SDS011;67984;45.118;20.724;2023-09-30T22:18:52;15.33;;;7.20;;
78668;SDS011;67984;45.118;20.724;2023-09-30T22:28:54;21.73;;;8.18;;
78668;SDS011;67984;45.118;20.724;2023-09-30T22:38:54;15.20;;;7.10;;
78668;SDS011;67984;45.118;20.724;2023-09-30T22:48:55;19.25;;;7.68;;
78668;SDS011;67984;45.118;20.724;2023-09-30T22:58:57;21.48;;;8.00;;
78668;SDS011;67984;45.118;20.724;2023-09-30T23:08:58;23.10;;;8.48;;
78668;SDS011;67984;45.118;20.724;2023-09-30T23:18:58;17.50;;;7.82;;
78668;SDS011;67984;45.118;20.724;2023-09-30T23:29:01;23.80;;;8.85;;
78668;SDS011;67984;45.118;20.724;2023-09-30T23:39:02;21.80;;;9.30;;
78668;SDS011;67984;45.118;20.724;2023-09-30T23:49:04;25.20;;;8.68;;
78668;SDS011;67984;45.118;20.724;2023-09-30T23:59:06;23.27;;;8.85;;
